sensor_id;sensor_type;location;lat;lon;timestamp;P1;durP1;ratioP1;P2;durP2;ratioP2
6131;SDS011;3097;42.692;23.278;2023-01-29T00:01:05;14.73;;;7.73;;
6131;SDS011;3097;42.692;23.278;2023-01-29T00:03:32;14.17;;;7.50;;
6131;SDS011;3097;42.692;23.278;2023-01-29T00:05:58;12.63;;;7.37;;
6131;SDS011;3097;42.692;23.278;2023-01-29T00:08:24;12.70;;;7.60;;
6131;SDS011;3097;42.692;23.278;2023-01-29T00:10:50;14.37;;;7.37;;
6131;SDS011;3097;42.692;23.278;2023-01-29T00:13:15;14.27;;;7.53;;
6131;SDS011;3097;42.692;23.278;2023-01-29T00:15:41;15.07;;;7.93;;
6131;SDS011;3097;42.692;23.278;2023-01-29T00:18:07;13.57;;;7.53;;
6131;SDS011;3097;42.692;23.278;2023-01-29T00:20:32;17.03;;;8.33;;
6131;SDS011;3097;42.692;23.278;2023-01-29T00:22:58;15.67;;;7.60;;
6131;SDS011;3097;42.692;23.278;2023-01-29T00:25:24;15.37;;;8.90;;
6131;SDS011;3097;42.692;23.278;2023-01-29T00:27:49;17.77;;;9.40;;
6131;SDS011;3097;42.692;23.278;2023-01-29T00:30:15;15.63;;;8.37;;
6131;SDS011;3097;42.692;23.278;2023-01-29T00:32:43;15.27;;;8.03;;
6131;SDS011;3097;42.692;23.278;2023-01-29T00:35:09;16.33;;;7.97;;
6131;SDS011;3097;42.692;23.278;2023-01-29T00:37:35;12.97;;;6.83;;
6131;SDS011;3097;42.692;23.278;2023-01-29T00:40:01;12.03;;;7.70;;
6131;SDS011;3097;42.692;23.278;2023-01-29T00:42:26;15.40;;;7.60;;
6131;SDS011;3097;42.692;23.278;2023-01-29T00:45:10;12.73;;;6.93;;
6131;SDS011;3097;42.692;23.278;2023-01-29T00:47:36;10.63;;;6.90;;
6131;SDS011;3097;42.692;23.278;2023-01-29T00:50:03;12.80;;;7.63;;
6131;SDS011;3097;42.692;23.278;2023-01-29T00:52:32;17.83;;;8.60;;
6131;SDS011;3097;42.692;23.278;2023-01-29T00:55:00;15.50;;;8.63;;
6131;SDS011;3097;42.692;23.278;2023-01-29T00:57:27;18.33;;;9.10;;
6131;SDS011;3097;42.692;23.278;2023-01-29T00:59:54;18.37;;;8.93;;
6131;SDS011;3097;42.692;23.278;2023-01-29T01:02:19;14.93;;;7.10;;
6131;SDS011;3097;42.692;23.278;2023-01-29T01:05:04;12.17;;;6.93;;
6131;SDS011;3097;42.692;23.278;2023-01-29T01:07:31;10.20;;;6.27;;
6131;SDS011;3097;42.692;23.278;2023-01-29T01:09:57;13.23;;;6.53;;
6131;SDS011;3097;42.692;23.278;2023-01-29T01:12:41;13.83;;;7.10;;
6131;SDS011;3097;42.692;23.278;2023-01-29T01:15:07;11.30;;;6.37;;
6131;SDS011;3097;42.692;23.278;2023-01-29T01:17:33;13.13;;;6.93;;
6131;SDS011;3097;42.692;23.278;2023-01-29T01:19:59;11.00;;;5.87;;
6131;SDS011;3097;42.692;23.278;2023-01-29T01:22:25;12.23;;;6.63;;
6131;SDS011;3097;42.692;23.278;2023-01-29T01:24:50;9.17;;;6.00;;
6131;SDS011;3097;42.692;23.278;2023-01-29T01:27:16;14.27;;;6.37;;
6131;SDS011;3097;42.692;23.278;2023-01-29T01:29:43;12.73;;;6.23;;
6131;SDS011;3097;42.692;23.278;2023-01-29T01:32:09;10.07;;;5.90;;
6131;SDS011;3097;42.692;23.278;2023-01-29T01:34:36;9.33;;;5.63;;
6131;SDS011;3097;42.692;23.278;2023-01-29T01:37:01;10.63;;;5.97;;
6131;SDS011;3097;42.692;23.278;2023-01-29T01:39:27;10.03;;;6.03;;
6131;SDS011;3097;42.692;23.278;2023-01-29T01:41:52;11.40;;;6.63;;
6131;SDS011;3097;42.692;23.278;2023-01-29T01:47:29;10.93;;;6.70;;
6131;SDS011;3097;42.692;23.278;2023-01-29T01:50:05;10.30;;;6.10;;
6131;SDS011;3097;42.692;23.278;2023-01-29T01:52:35;9.47;;;6.10;;
6131;SDS011;3097;42.692;23.278;2023-01-29T01:55:07;12.17;;;6.20;;
6131;SDS011;3097;42.692;23.278;2023-01-29T01:57:34;10.10;;;5.97;;
6131;SDS011;3097;42.692;23.278;2023-01-29T02:00:03;11.07;;;7.00;;
6131;SDS011;3097;42.692;23.278;2023-01-29T02:02:37;13.70;;;6.83;;
6131;SDS011;3097;42.692;23.278;2023-01-29T02:05:23;14.03;;;7.10;;
6131;SDS011;3097;42.692;23.278;2023-01-29T02:08:08;12.27;;;6.57;;
6131;SDS011;3097;42.692;23.278;2023-01-29T02:10:53;12.53;;;7.37;;
6131;SDS011;3097;42.692;23.278;2023-01-29T02:13:19;12.20;;;7.07;;
6131;SDS011;3097;42.692;23.278;2023-01-29T02:15:45;10.90;;;6.80;;
6131;SDS011;3097;42.692;23.278;2023-01-29T02:18:13;11.40;;;6.60;;
6131;SDS011;3097;42.692;23.278;2023-01-29T02:20:41;10.17;;;6.57;;
6131;SDS011;3097;42.692;23.278;2023-01-29T02:23:22;10.53;;;5.97;;
6131;SDS011;3097;42.692;23.278;2023-01-29T02:26:13;8.17;;;5.07;;
6131;SDS011;3097;42.692;23.278;2023-01-29T02:31:29;10.83;;;6.00;;
6131;SDS011;3097;42.692;23.278;2023-01-29T02:36:44;11.53;;;6.50;;
6131;SDS011;3097;42.692;23.278;2023-01-29T02:50:15;13.47;;;7.20;;
6131;SDS011;3097;42.692;23.278;2023-01-29T02:55:16;11.33;;;6.37;;
6131;SDS011;3097;42.692;23.278;2023-01-29T02:57:48;14.60;;;7.47;;
6131;SDS011;3097;42.692;23.278;2023-01-29T03:03:03;15.23;;;7.20;;
6131;SDS011;3097;42.692;23.278;2023-01-29T03:05:32;13.80;;;8.13;;
6131;SDS011;3097;42.692;23.278;2023-01-29T03:08:10;18.83;;;9.23;;
6131;SDS011;3097;42.692;23.278;2023-01-29T03:10:54;16.67;;;9.90;;
6131;SDS011;3097;42.692;23.278;2023-01-29T03:13:45;22.43;;;10.97;;
6131;SDS011;3097;42.692;23.278;2023-01-29T03:18:52;14.27;;;8.43;;
6131;SDS011;3097;42.692;23.278;2023-01-29T03:24:44;14.40;;;7.07;;
6131;SDS011;3097;42.692;23.278;2023-01-29T03:27:51;13.63;;;6.87;;
6131;SDS011;3097;42.692;23.278;2023-01-29T03:30:40;12.27;;;6.67;;
6131;SDS011;3097;42.692;23.278;2023-01-29T03:33:27;13.27;;;6.30;;
6131;SDS011;3097;42.692;23.278;2023-01-29T03:36:39;11.20;;;5.93;;
6131;SDS011;3097;42.692;23.278;2023-01-29T03:38:51;9.13;;;5.60;;
6131;SDS011;3097;42.692;23.278;2023-01-29T03:44:06;17.43;;;8.53;;
6131;SDS011;3097;42.692;23.278;2023-01-29T03:49:29;17.60;;;7.63;;
6131;SDS011;3097;42.692;23.278;2023-01-29T03:55:03;9.33;;;5.40;;
6131;SDS011;3097;42.692;23.278;2023-01-29T03:57:41;10.60;;;5.97;;
6131;SDS011;3097;42.692;23.278;2023-01-29T04:00:29;9.50;;;6.00;;
6131;SDS011;3097;42.692;23.278;2023-01-29T04:05:32;11.63;;;6.00;;
6131;SDS011;3097;42.692;23.278;2023-01-29T04:08:05;10.97;;;6.43;;
6131;SDS011;3097;42.692;23.278;2023-01-29T04:10:36;8.13;;;5.63;;
6131;SDS011;3097;42.692;23.278;2023-01-29T04:13:05;10.73;;;6.43;;
6131;SDS011;3097;42.692;23.278;2023-01-29T04:15:37;10.07;;;6.63;;
6131;SDS011;3097;42.692;23.278;2023-01-29T04:18:07;11.00;;;6.87;;
6131;SDS011;3097;42.692;23.278;2023-01-29T04:20:33;11.93;;;7.27;;
6131;SDS011;3097;42.692;23.278;2023-01-29T04:23:00;15.53;;;9.10;;
6131;SDS011;3097;42.692;23.278;2023-01-29T04:25:26;21.23;;;12.10;;
6131;SDS011;3097;42.692;23.278;2023-01-29T04:49:47;11.47;;;6.80;;
6131;SDS011;3097;42.692;23.278;2023-01-29T04:52:23;10.20;;;6.00;;
6131;SDS011;3097;42.692;23.278;2023-01-29T04:55:03;11.33;;;6.80;;
6131;SDS011;3097;42.692;23.278;2023-01-29T04:57:53;9.73;;;5.90;;
6131;SDS011;3097;42.692;23.278;2023-01-29T05:00:30;8.20;;;5.37;;
6131;SDS011;3097;42.692;23.278;2023-01-29T05:03:02;13.33;;;6.53;;
6131;SDS011;3097;42.692;23.278;2023-01-29T05:05:30;12.47;;;6.97;;
6131;SDS011;3097;42.692;23.278;2023-01-29T05:07:56;11.90;;;6.30;;
6131;SDS011;3097;42.692;23.278;2023-01-29T05:10:23;8.70;;;5.67;;
6131;SDS011;3097;42.692;23.278;2023-01-29T05:12:50;13.23;;;6.70;;
6131;SDS011;3097;42.692;23.278;2023-01-29T05:15:23;11.27;;;6.30;;
6131;SDS011;3097;42.692;23.278;2023-01-29T05:17:54;12.40;;;7.07;;
6131;SDS011;3097;42.692;23.278;2023-01-29T05:20:25;12.00;;;5.93;;
6131;SDS011;3097;42.692;23.278;2023-01-29T05:22:51;11.93;;;7.23;;
6131;SDS011;3097;42.692;23.278;2023-01-29T05:25:28;13.47;;;7.40;;
6131;SDS011;3097;42.692;23.278;2023-01-29T05:27:55;15.60;;;7.63;;
6131;SDS011;3097;42.692;23.278;2023-01-29T05:30:41;16.57;;;7.60;;
6131;SDS011;3097;42.692;23.278;2023-01-29T05:33:24;14.07;;;7.67;;
6131;SDS011;3097;42.692;23.278;2023-01-29T05:35:50;14.77;;;7.93;;
6131;SDS011;3097;42.692;23.278;2023-01-29T05:38:16;10.67;;;6.57;;
6131;SDS011;3097;42.692;23.278;2023-01-29T05:40:42;13.20;;;7.40;;
6131;SDS011;3097;42.692;23.278;2023-01-29T05:43:15;13.30;;;8.00;;
6131;SDS011;3097;42.692;23.278;2023-01-29T05:45:42;16.33;;;8.57;;
6131;SDS011;3097;42.692;23.278;2023-01-29T05:48:15;22.60;;;9.37;;
6131;SDS011;3097;42.692;23.278;2023-01-29T05:50:40;17.30;;;8.90;;
6131;SDS011;3097;42.692;23.278;2023-01-29T05:53:06;19.43;;;10.30;;
6131;SDS011;3097;42.692;23.278;2023-01-29T05:55:31;15.07;;;9.43;;
6131;SDS011;3097;42.692;23.278;2023-01-29T05:57:57;12.93;;;7.60;;
6131;SDS011;3097;42.692;23.278;2023-01-29T06:00:22;13.07;;;7.57;;
6131;SDS011;3097;42.692;23.278;2023-01-29T06:02:48;13.70;;;8.10;;
6131;SDS011;3097;42.692;23.278;2023-01-29T06:05:13;14.03;;;7.73;;
6131;SDS011;3097;42.692;23.278;2023-01-29T06:07:39;11.73;;;7.43;;
6131;SDS011;3097;42.692;23.278;2023-01-29T06:10:09;12.70;;;7.70;;
6131;SDS011;3097;42.692;23.278;2023-01-29T06:12:36;15.37;;;9.03;;
6131;SDS011;3097;42.692;23.278;2023-01-29T06:15:02;16.53;;;8.30;;
6131;SDS011;3097;42.692;23.278;2023-01-29T06:17:27;15.37;;;8.90;;
6131;SDS011;3097;42.692;23.278;2023-01-29T06:19:53;16.97;;;8.83;;
6131;SDS011;3097;42.692;23.278;2023-01-29T06:22:18;12.13;;;7.97;;
6131;SDS011;3097;42.692;23.278;2023-01-29T06:24:44;19.70;;;8.63;;
6131;SDS011;3097;42.692;23.278;2023-01-29T06:27:09;16.97;;;8.77;;
6131;SDS011;3097;42.692;23.278;2023-01-29T06:29:35;15.33;;;9.30;;
6131;SDS011;3097;42.692;23.278;2023-01-29T06:32:00;13.97;;;7.80;;
6131;SDS011;3097;42.692;23.278;2023-01-29T06:34:27;15.60;;;8.83;;
6131;SDS011;3097;42.692;23.278;2023-01-29T06:36:52;19.10;;;9.33;;
6131;SDS011;3097;42.692;23.278;2023-01-29T06:39:18;18.90;;;9.43;;
6131;SDS011;3097;42.692;23.278;2023-01-29T06:41:43;18.97;;;9.67;;
6131;SDS011;3097;42.692;23.278;2023-01-29T06:44:10;17.93;;;10.03;;
6131;SDS011;3097;42.692;23.278;2023-01-29T06:46:35;17.47;;;8.80;;
6131;SDS011;3097;42.692;23.278;2023-01-29T06:49:01;20.83;;;10.50;;
6131;SDS011;3097;42.692;23.278;2023-01-29T06:51:26;22.73;;;12.20;;
6131;SDS011;3097;42.692;23.278;2023-01-29T06:53:52;26.97;;;13.40;;
6131;SDS011;3097;42.692;23.278;2023-01-29T06:56:20;25.10;;;12.17;;
6131;SDS011;3097;42.692;23.278;2023-01-29T06:58:46;27.30;;;13.63;;
6131;SDS011;3097;42.692;23.278;2023-01-29T07:01:11;27.40;;;13.87;;
6131;SDS011;3097;42.692;23.278;2023-01-29T07:03:37;26.07;;;13.33;;
6131;SDS011;3097;42.692;23.278;2023-01-29T07:06:03;19.87;;;11.77;;
6131;SDS011;3097;42.692;23.278;2023-01-29T07:08:29;21.97;;;11.70;;
6131;SDS011;3097;42.692;23.278;2023-01-29T07:11:00;28.23;;;13.27;;
6131;SDS011;3097;42.692;23.278;2023-01-29T07:13:27;24.13;;;12.70;;
6131;SDS011;3097;42.692;23.278;2023-01-29T07:15:53;23.07;;;12.40;;
6131;SDS011;3097;42.692;23.278;2023-01-29T07:18:21;29.30;;;13.40;;
6131;SDS011;3097;42.692;23.278;2023-01-29T07:20:47;30.87;;;14.27;;
6131;SDS011;3097;42.692;23.278;2023-01-29T07:23:12;30.40;;;14.97;;
6131;SDS011;3097;42.692;23.278;2023-01-29T07:25:38;36.67;;;18.47;;
6131;SDS011;3097;42.692;23.278;2023-01-29T07:28:04;42.47;;;20.67;;
6131;SDS011;3097;42.692;23.278;2023-01-29T07:30:31;27.70;;;14.13;;
6131;SDS011;3097;42.692;23.278;2023-01-29T07:35:29;21.90;;;11.33;;
6131;SDS011;3097;42.692;23.278;2023-01-29T07:37:55;20.67;;;10.57;;
6131;SDS011;3097;42.692;23.278;2023-01-29T07:40:21;22.57;;;10.97;;
6131;SDS011;3097;42.692;23.278;2023-01-29T07:42:46;18.90;;;11.07;;
6131;SDS011;3097;42.692;23.278;2023-01-29T07:45:11;20.80;;;12.37;;
6131;SDS011;3097;42.692;23.278;2023-01-29T07:47:37;23.90;;;12.00;;
6131;SDS011;3097;42.692;23.278;2023-01-29T07:50:03;18.73;;;10.20;;
6131;SDS011;3097;42.692;23.278;2023-01-29T07:52:29;20.00;;;10.57;;
6131;SDS011;3097;42.692;23.278;2023-01-29T07:54:56;17.90;;;9.33;;
6131;SDS011;3097;42.692;23.278;2023-01-29T07:57:21;21.97;;;11.43;;
6131;SDS011;3097;42.692;23.278;2023-01-29T07:59:47;20.17;;;10.17;;
6131;SDS011;3097;42.692;23.278;2023-01-29T08:02:12;17.87;;;9.67;;
6131;SDS011;3097;42.692;23.278;2023-01-29T08:04:38;20.00;;;10.63;;
6131;SDS011;3097;42.692;23.278;2023-01-29T08:07:03;23.60;;;11.40;;
6131;SDS011;3097;42.692;23.278;2023-01-29T08:09:29;25.37;;;11.40;;
6131;SDS011;3097;42.692;23.278;2023-01-29T08:11:55;21.73;;;10.77;;
6131;SDS011;3097;42.692;23.278;2023-01-29T08:14:21;27.63;;;12.30;;
6131;SDS011;3097;42.692;23.278;2023-01-29T08:16:47;17.60;;;9.77;;
6131;SDS011;3097;42.692;23.278;2023-01-29T08:19:12;22.30;;;11.57;;
6131;SDS011;3097;42.692;23.278;2023-01-29T08:21:38;22.03;;;11.63;;
6131;SDS011;3097;42.692;23.278;2023-01-29T08:24:03;21.43;;;11.17;;
6131;SDS011;3097;42.692;23.278;2023-01-29T08:26:29;17.70;;;9.73;;
6131;SDS011;3097;42.692;23.278;2023-01-29T08:28:54;25.07;;;11.77;;
6131;SDS011;3097;42.692;23.278;2023-01-29T08:31:20;22.43;;;11.37;;
6131;SDS011;3097;42.692;23.278;2023-01-29T08:33:45;28.10;;;13.97;;
6131;SDS011;3097;42.692;23.278;2023-01-29T08:36:11;23.53;;;11.03;;
6131;SDS011;3097;42.692;23.278;2023-01-29T08:38:37;25.53;;;12.93;;
6131;SDS011;3097;42.692;23.278;2023-01-29T08:41:03;25.20;;;12.73;;
6131;SDS011;3097;42.692;23.278;2023-01-29T08:43:29;19.60;;;11.17;;
6131;SDS011;3097;42.692;23.278;2023-01-29T08:45:54;19.37;;;11.77;;
6131;SDS011;3097;42.692;23.278;2023-01-29T08:48:19;21.23;;;11.07;;
6131;SDS011;3097;42.692;23.278;2023-01-29T08:50:45;21.00;;;10.27;;
6131;SDS011;3097;42.692;23.278;2023-01-29T08:53:10;19.60;;;10.40;;
6131;SDS011;3097;42.692;23.278;2023-01-29T08:55:36;26.97;;;12.40;;
6131;SDS011;3097;42.692;23.278;2023-01-29T08:58:09;31.70;;;13.80;;
6131;SDS011;3097;42.692;23.278;2023-01-29T09:00:35;25.20;;;11.07;;
6131;SDS011;3097;42.692;23.278;2023-01-29T09:03:01;27.90;;;12.83;;
6131;SDS011;3097;42.692;23.278;2023-01-29T09:05:28;30.17;;;12.33;;
6131;SDS011;3097;42.692;23.278;2023-01-29T09:07:55;19.03;;;10.57;;
6131;SDS011;3097;42.692;23.278;2023-01-29T09:10:21;26.83;;;10.63;;
6131;SDS011;3097;42.692;23.278;2023-01-29T09:12:46;24.77;;;12.03;;
6131;SDS011;3097;42.692;23.278;2023-01-29T09:15:11;26.33;;;11.73;;
6131;SDS011;3097;42.692;23.278;2023-01-29T09:17:37;27.87;;;13.20;;
6131;SDS011;3097;42.692;23.278;2023-01-29T09:20:02;26.57;;;11.93;;
6131;SDS011;3097;42.692;23.278;2023-01-29T09:22:30;18.87;;;9.47;;
6131;SDS011;3097;42.692;23.278;2023-01-29T09:24:55;28.47;;;12.77;;
6131;SDS011;3097;42.692;23.278;2023-01-29T09:27:21;25.27;;;11.63;;
6131;SDS011;3097;42.692;23.278;2023-01-29T09:29:46;20.67;;;10.63;;
6131;SDS011;3097;42.692;23.278;2023-01-29T09:32:12;27.30;;;13.73;;
6131;SDS011;3097;42.692;23.278;2023-01-29T09:34:37;23.20;;;11.10;;
6131;SDS011;3097;42.692;23.278;2023-01-29T09:37:03;19.00;;;9.40;;
6131;SDS011;3097;42.692;23.278;2023-01-29T09:39:28;15.73;;;8.63;;
6131;SDS011;3097;42.692;23.278;2023-01-29T09:41:55;18.30;;;9.03;;
6131;SDS011;3097;42.692;23.278;2023-01-29T09:47:17;28.30;;;12.87;;
6131;SDS011;3097;42.692;23.278;2023-01-29T09:49:52;21.87;;;11.63;;
6131;SDS011;3097;42.692;23.278;2023-01-29T09:52:24;27.77;;;13.90;;
6131;SDS011;3097;42.692;23.278;2023-01-29T09:55:26;30.13;;;13.67;;
6131;SDS011;3097;42.692;23.278;2023-01-29T10:00:17;25.43;;;12.43;;
6131;SDS011;3097;42.692;23.278;2023-01-29T10:06:08;21.90;;;10.70;;
6131;SDS011;3097;42.692;23.278;2023-01-29T10:11:44;30.03;;;13.33;;
6131;SDS011;3097;42.692;23.278;2023-01-29T10:16:57;28.03;;;12.90;;
6131;SDS011;3097;42.692;23.278;2023-01-29T10:24:36;35.23;;;16.43;;
6131;SDS011;3097;42.692;23.278;2023-01-29T10:27:24;36.63;;;17.23;;
6131;SDS011;3097;42.692;23.278;2023-01-29T10:29:55;36.77;;;16.77;;
6131;SDS011;3097;42.692;23.278;2023-01-29T10:32:22;28.43;;;12.73;;
6131;SDS011;3097;42.692;23.278;2023-01-29T10:34:55;32.70;;;15.43;;
6131;SDS011;3097;42.692;23.278;2023-01-29T10:37:38;25.90;;;13.13;;
6131;SDS011;3097;42.692;23.278;2023-01-29T10:40:17;33.17;;;15.20;;
6131;SDS011;3097;42.692;23.278;2023-01-29T10:42:45;39.17;;;16.47;;
6131;SDS011;3097;42.692;23.278;2023-01-29T10:54:12;54.77;;;21.67;;
6131;SDS011;3097;42.692;23.278;2023-01-29T11:02:19;27.40;;;13.47;;
6131;SDS011;3097;42.692;23.278;2023-01-29T11:04:46;27.97;;;13.10;;
6131;SDS011;3097;42.692;23.278;2023-01-29T11:07:12;31.60;;;14.40;;
6131;SDS011;3097;42.692;23.278;2023-01-29T11:09:41;27.20;;;12.30;;
6131;SDS011;3097;42.692;23.278;2023-01-29T11:12:15;26.80;;;12.13;;
6131;SDS011;3097;42.692;23.278;2023-01-29T11:14:57;30.53;;;14.37;;
6131;SDS011;3097;42.692;23.278;2023-01-29T11:17:29;26.03;;;12.17;;
6131;SDS011;3097;42.692;23.278;2023-01-29T11:19:54;28.20;;;12.97;;
6131;SDS011;3097;42.692;23.278;2023-01-29T11:22:21;21.50;;;10.40;;
6131;SDS011;3097;42.692;23.278;2023-01-29T11:27:34;29.53;;;13.77;;
6131;SDS011;3097;42.692;23.278;2023-01-29T11:33:17;28.43;;;13.33;;
6131;SDS011;3097;42.692;23.278;2023-01-29T11:35:44;30.60;;;14.90;;
6131;SDS011;3097;42.692;23.278;2023-01-29T11:38:26;26.70;;;11.50;;
6131;SDS011;3097;42.692;23.278;2023-01-29T11:41:06;35.47;;;14.37;;
6131;SDS011;3097;42.692;23.278;2023-01-29T11:43:39;29.70;;;13.27;;
6131;SDS011;3097;42.692;23.278;2023-01-29T11:46:10;31.37;;;14.17;;
6131;SDS011;3097;42.692;23.278;2023-01-29T11:51:21;34.70;;;14.60;;
6131;SDS011;3097;42.692;23.278;2023-01-29T11:53:50;34.23;;;15.50;;
6131;SDS011;3097;42.692;23.278;2023-01-29T11:56:33;27.00;;;11.90;;
6131;SDS011;3097;42.692;23.278;2023-01-29T11:59:05;32.97;;;13.57;;
6131;SDS011;3097;42.692;23.278;2023-01-29T12:02:05;21.77;;;11.00;;
6131;SDS011;3097;42.692;23.278;2023-01-29T12:04:43;25.53;;;12.53;;
6131;SDS011;3097;42.692;23.278;2023-01-29T12:07:15;26.83;;;11.83;;
6131;SDS011;3097;42.692;23.278;2023-01-29T12:09:56;23.60;;;11.50;;
6131;SDS011;3097;42.692;23.278;2023-01-29T12:12:26;22.30;;;10.77;;
6131;SDS011;3097;42.692;23.278;2023-01-29T12:15:09;30.67;;;13.73;;
6131;SDS011;3097;42.692;23.278;2023-01-29T12:17:41;28.17;;;12.07;;
6131;SDS011;3097;42.692;23.278;2023-01-29T12:20:13;20.33;;;9.37;;
6131;SDS011;3097;42.692;23.278;2023-01-29T12:22:46;23.40;;;10.87;;
6131;SDS011;3097;42.692;23.278;2023-01-29T12:31:14;20.77;;;9.93;;
6131;SDS011;3097;42.692;23.278;2023-01-29T12:33:50;19.60;;;10.37;;
6131;SDS011;3097;42.692;23.278;2023-01-29T12:37:08;31.03;;;13.47;;
6131;SDS011;3097;42.692;23.278;2023-01-29T12:39:28;31.83;;;14.73;;
6131;SDS011;3097;42.692;23.278;2023-01-29T12:41:59;34.27;;;15.77;;
6131;SDS011;3097;42.692;23.278;2023-01-29T12:46:58;22.57;;;11.67;;
6131;SDS011;3097;42.692;23.278;2023-01-29T12:49:27;23.47;;;9.80;;
6131;SDS011;3097;42.692;23.278;2023-01-29T12:54:48;18.57;;;10.10;;
6131;SDS011;3097;42.692;23.278;2023-01-29T13:00:09;26.37;;;12.80;;
6131;SDS011;3097;42.692;23.278;2023-01-29T13:02:42;31.10;;;14.07;;
6131;SDS011;3097;42.692;23.278;2023-01-29T13:05:56;25.87;;;11.30;;
6131;SDS011;3097;42.692;23.278;2023-01-29T13:10:56;25.33;;;10.60;;
6131;SDS011;3097;42.692;23.278;2023-01-29T13:13:32;23.23;;;12.33;;
6131;SDS011;3097;42.692;23.278;2023-01-29T13:16:02;28.03;;;13.10;;
6131;SDS011;3097;42.692;23.278;2023-01-29T13:18:45;28.20;;;13.03;;
6131;SDS011;3097;42.692;23.278;2023-01-29T13:21:19;26.00;;;13.40;;
6131;SDS011;3097;42.692;23.278;2023-01-29T13:23:49;25.67;;;12.03;;
6131;SDS011;3097;42.692;23.278;2023-01-29T13:26:20;28.23;;;13.70;;
6131;SDS011;3097;42.692;23.278;2023-01-29T13:28:47;20.27;;;10.67;;
6131;SDS011;3097;42.692;23.278;2023-01-29T13:31:30;25.30;;;12.70;;
6131;SDS011;3097;42.692;23.278;2023-01-29T13:34:04;36.37;;;17.73;;
6131;SDS011;3097;42.692;23.278;2023-01-29T13:36:36;33.50;;;16.43;;
6131;SDS011;3097;42.692;23.278;2023-01-29T13:39:13;35.53;;;16.23;;
6131;SDS011;3097;42.692;23.278;2023-01-29T13:41:44;34.23;;;14.83;;
6131;SDS011;3097;42.692;23.278;2023-01-29T13:46:57;28.10;;;13.57;;
6131;SDS011;3097;42.692;23.278;2023-01-29T13:54:56;32.93;;;14.30;;
6131;SDS011;3097;42.692;23.278;2023-01-29T14:00:46;28.57;;;12.37;;
6131;SDS011;3097;42.692;23.278;2023-01-29T14:07:56;24.60;;;9.63;;
6131;SDS011;3097;42.692;23.278;2023-01-29T14:10:27;24.73;;;10.70;;
6131;SDS011;3097;42.692;23.278;2023-01-29T14:13:40;25.27;;;10.43;;
6131;SDS011;3097;42.692;23.278;2023-01-29T14:18:20;23.27;;;10.50;;
6131;SDS011;3097;42.692;23.278;2023-01-29T14:20:58;23.97;;;10.67;;
6131;SDS011;3097;42.692;23.278;2023-01-29T14:28:53;23.43;;;10.80;;
6131;SDS011;3097;42.692;23.278;2023-01-29T14:31:41;23.10;;;11.23;;
6131;SDS011;3097;42.692;23.278;2023-01-29T14:34:24;23.33;;;10.93;;
6131;SDS011;3097;42.692;23.278;2023-01-29T14:37:01;32.13;;;12.87;;
6131;SDS011;3097;42.692;23.278;2023-01-29T14:39:43;26.73;;;11.47;;
6131;SDS011;3097;42.692;23.278;2023-01-29T14:42:21;48.63;;;18.20;;
6131;SDS011;3097;42.692;23.278;2023-01-29T14:52:20;35.07;;;12.83;;
6131;SDS011;3097;42.692;23.278;2023-01-29T14:54:52;33.90;;;14.87;;
6131;SDS011;3097;42.692;23.278;2023-01-29T14:57:21;34.50;;;13.40;;
6131;SDS011;3097;42.692;23.278;2023-01-29T15:02:19;30.80;;;13.60;;
6131;SDS011;3097;42.692;23.278;2023-01-29T15:04:51;37.17;;;14.80;;
6131;SDS011;3097;42.692;23.278;2023-01-29T15:07:33;36.97;;;13.83;;
6131;SDS011;3097;42.692;23.278;2023-01-29T15:10:16;28.47;;;13.43;;
6131;SDS011;3097;42.692;23.278;2023-01-29T15:15:55;40.23;;;15.90;;
6131;SDS011;3097;42.692;23.278;2023-01-29T15:18:41;34.20;;;14.23;;
6131;SDS011;3097;42.692;23.278;2023-01-29T15:21:11;30.10;;;12.33;;
6131;SDS011;3097;42.692;23.278;2023-01-29T15:23:41;30.90;;;14.07;;
6131;SDS011;3097;42.692;23.278;2023-01-29T15:26:12;27.37;;;13.07;;
6131;SDS011;3097;42.692;23.278;2023-01-29T15:28:52;36.53;;;15.07;;
6131;SDS011;3097;42.692;23.278;2023-01-29T15:31:19;26.17;;;11.13;;
6131;SDS011;3097;42.692;23.278;2023-01-29T15:33:45;32.50;;;13.53;;
6131;SDS011;3097;42.692;23.278;2023-01-29T15:36:19;27.53;;;12.83;;
6131;SDS011;3097;42.692;23.278;2023-01-29T15:38:47;31.10;;;13.77;;
6131;SDS011;3097;42.692;23.278;2023-01-29T15:43:48;33.70;;;14.13;;
6131;SDS011;3097;42.692;23.278;2023-01-29T15:46:24;25.37;;;10.97;;
6131;SDS011;3097;42.692;23.278;2023-01-29T15:48:52;35.63;;;14.33;;
6131;SDS011;3097;42.692;23.278;2023-01-29T15:51:20;29.30;;;13.90;;
6131;SDS011;3097;42.692;23.278;2023-01-29T15:53:55;33.70;;;14.77;;
6131;SDS011;3097;42.692;23.278;2023-01-29T15:56:28;40.60;;;16.30;;
6131;SDS011;3097;42.692;23.278;2023-01-29T15:58:59;34.23;;;14.57;;
6131;SDS011;3097;42.692;23.278;2023-01-29T16:01:27;38.07;;;15.13;;
6131;SDS011;3097;42.692;23.278;2023-01-29T16:03:53;37.47;;;15.57;;
6131;SDS011;3097;42.692;23.278;2023-01-29T16:06:20;28.70;;;13.23;;
6131;SDS011;3097;42.692;23.278;2023-01-29T16:08:47;33.97;;;13.73;;
6131;SDS011;3097;42.692;23.278;2023-01-29T16:11:16;25.00;;;12.17;;
6131;SDS011;3097;42.692;23.278;2023-01-29T16:13:43;26.80;;;11.50;;
6131;SDS011;3097;42.692;23.278;2023-01-29T16:18:44;30.43;;;13.07;;
6131;SDS011;3097;42.692;23.278;2023-01-29T16:21:14;30.57;;;13.23;;
6131;SDS011;3097;42.692;23.278;2023-01-29T16:24:00;30.77;;;13.77;;
6131;SDS011;3097;42.692;23.278;2023-01-29T16:26:34;31.17;;;12.43;;
6131;SDS011;3097;42.692;23.278;2023-01-29T16:29:05;28.60;;;12.30;;
6131;SDS011;3097;42.692;23.278;2023-01-29T16:31:36;24.33;;;11.40;;
6131;SDS011;3097;42.692;23.278;2023-01-29T16:34:09;22.73;;;10.37;;
6131;SDS011;3097;42.692;23.278;2023-01-29T16:36:44;25.43;;;12.27;;
6131;SDS011;3097;42.692;23.278;2023-01-29T16:39:18;28.20;;;12.33;;
6131;SDS011;3097;42.692;23.278;2023-01-29T16:44:35;33.83;;;14.37;;
6131;SDS011;3097;42.692;23.278;2023-01-29T16:47:13;31.63;;;14.20;;
6131;SDS011;3097;42.692;23.278;2023-01-29T16:49:47;36.93;;;15.70;;
6131;SDS011;3097;42.692;23.278;2023-01-29T16:54:46;33.00;;;13.17;;
6131;SDS011;3097;42.692;23.278;2023-01-29T16:57:14;30.63;;;14.83;;
6131;SDS011;3097;42.692;23.278;2023-01-29T16:59:46;31.67;;;12.80;;
6131;SDS011;3097;42.692;23.278;2023-01-29T17:04:50;39.47;;;14.53;;
6131;SDS011;3097;42.692;23.278;2023-01-29T17:07:17;36.33;;;16.90;;
6131;SDS011;3097;42.692;23.278;2023-01-29T17:09:49;39.53;;;16.83;;
6131;SDS011;3097;42.692;23.278;2023-01-29T17:12:22;43.83;;;18.80;;
6131;SDS011;3097;42.692;23.278;2023-01-29T17:14:51;49.20;;;20.27;;
6131;SDS011;3097;42.692;23.278;2023-01-29T17:17:19;55.87;;;23.67;;
6131;SDS011;3097;42.692;23.278;2023-01-29T17:19:44;49.10;;;20.17;;
6131;SDS011;3097;42.692;23.278;2023-01-29T17:22:09;49.20;;;20.30;;
6131;SDS011;3097;42.692;23.278;2023-01-29T17:24:39;45.17;;;19.60;;
6131;SDS011;3097;42.692;23.278;2023-01-29T17:27:05;41.50;;;19.83;;
6131;SDS011;3097;42.692;23.278;2023-01-29T17:29:30;48.10;;;18.47;;
6131;SDS011;3097;42.692;23.278;2023-01-29T17:31:57;43.60;;;18.00;;
6131;SDS011;3097;42.692;23.278;2023-01-29T17:34:24;43.43;;;17.87;;
6131;SDS011;3097;42.692;23.278;2023-01-29T17:36:50;38.97;;;17.23;;
6131;SDS011;3097;42.692;23.278;2023-01-29T17:39:19;40.63;;;18.53;;
6131;SDS011;3097;42.692;23.278;2023-01-29T17:41:50;42.33;;;19.70;;
6131;SDS011;3097;42.692;23.278;2023-01-29T17:44:17;60.13;;;25.60;;
6131;SDS011;3097;42.692;23.278;2023-01-29T17:46:43;48.93;;;22.90;;
6131;SDS011;3097;42.692;23.278;2023-01-29T17:51:54;57.07;;;25.07;;
6131;SDS011;3097;42.692;23.278;2023-01-29T17:54:20;60.40;;;23.27;;
6131;SDS011;3097;42.692;23.278;2023-01-29T17:56:47;52.53;;;21.40;;
6131;SDS011;3097;42.692;23.278;2023-01-29T17:59:14;51.27;;;23.03;;